Intrepid — WDE8786 — position and weather

sailwx.info

Track history (hours):
 
Tides and Currents Weather Stations Pressure Air Temp Water Temp Dewpoint Dewpoint Depression Visibility Wind Speed Wind Dir Waves Ship Positions

Intrepid

Owner: R & H Enterprises, Vero Beach, FL. More information available from US FCC via Universal Licensing System and Coast Guard Vessel Documentation Center.

Last reported at 2017-Mar-29 20:05 UTC. Time now 2017-Mar-30 04:42 UTC.
Position N 26°21' W 080°05'.

Length 35 m; draft 2 m.

Type: Pleasure craft. MMSI: 367409580.

Date/timePositionNaut miles runAvg speedWind from/ knotsBaromVisibWave heightAir tempDewpointWater temp
2017-Mar-29 20:05N 26°21' W 080°05'2 3.3
2017-Mar-29 19:33N 26°19' W 080°05'5 5.0
2017-Mar-29 18:33N 26°14' W 080°06'6 5.5
2017-Mar-29 17:33N 26°08' W 080°06'5 5.5
2017-Mar-29 16:33N 26°03' W 080°07'5 5.3
2017-Mar-29 15:34N 25°58' W 080°07'7 7.2
2017-Mar-29 14:33N 25°51' W 080°10'4 4.4
2017-Mar-29 13:33N 25°47' W 080°11'1 0.5
2017-Mar-29 12:28N 25°46' W 080°11'0 0.0
2017-Mar-29 11:31N 25°46' W 080°11'0 0.0
2017-Mar-29 10:31N 25°46' W 080°11'0 0.0
2017-Mar-29 09:25N 25°46' W 080°11'0 0.0
2017-Mar-29 08:31N 25°46' W 080°11'0 0.0
2017-Mar-29 07:31N 25°46' W 080°11'0 0.0
2017-Mar-29 06:31N 25°46' W 080°11'0 0.0
2017-Mar-29 05:31N 25°46' W 080°11'0 0.0
2017-Mar-29 04:31N 25°46' W 080°11'0 0.0
2017-Mar-29 03:31N 25°46' W 080°11'0 0.0
2017-Mar-29 02:31N 25°46' W 080°11'0 0.0
2017-Mar-29 01:31N 25°46' W 080°11'0 0.0
2017-Mar-29 00:25N 25°46' W 080°11'0 0.0
2017-Mar-28 23:31N 25°46' W 080°11'0 0.0
2017-Mar-28 22:31N 25°46' W 080°11'0 0.0
2017-Mar-28 21:31N 25°46' W 080°11'0 0.1
2017-Mar-28 20:31N 25°46' W 080°11'0 0.1
2017-Mar-28 19:31N 25°46' W 080°11'0 0.0
2017-Mar-28 18:31N 25°46' W 080°11'0 0.0
2017-Mar-28 17:31N 25°46' W 080°11'0 0.0
2017-Mar-28 16:28N 25°46' W 080°11'0 0.0
2017-Mar-28 15:31N 25°46' W 080°11'0 0.0
2017-Mar-28 14:31N 25°46' W 080°11'0 0.0
2017-Mar-28 13:31N 25°46' W 080°11'0 0.0
2017-Mar-28 12:31N 25°46' W 080°11'0 0.0
2017-Mar-28 11:25N 25°46' W 080°11'0 0.0
2017-Mar-28 10:25N 25°46' W 080°11'0 0.1
2017-Mar-28 09:31N 25°46' W 080°11'0 0.1
2017-Mar-28 08:31N 25°46' W 080°11'0 0.0
2017-Mar-28 07:31N 25°46' W 080°11'0 0.0
2017-Mar-28 06:31N 25°46' W 080°11'0 0.0
2017-Mar-28 05:31N 25°46' W 080°11'0 0.0
2017-Mar-28 04:25N 25°46' W 080°11'0 0.1
2017-Mar-28 03:31N 25°46' W 080°11'0 0.0
2017-Mar-28 02:28N 25°46' W 080°11'0 0.0
2017-Mar-28 01:28N 25°46' W 080°11'0 0.0
2017-Mar-28 00:31N 25°46' W 080°11'0 0.0
2017-Mar-27 23:28N 25°46' W 080°11'0 0.0
2017-Mar-27 22:31N 25°46' W 080°11'0 0.0
2017-Mar-27 21:31N 25°46' W 080°11'0 0.1
2017-Mar-27 20:31N 25°46' W 080°11'0 0.1
2017-Mar-27 19:31N 25°46' W 080°11'0 0.0
2017-Mar-27 18:25N 25°46' W 080°11'0 0.0
2017-Mar-27 17:28N 25°46' W 080°11'0 0.0
2017-Mar-27 16:34N 25°46' W 080°11'0 0.0
2017-Mar-27 15:31N 25°46' W 080°11'0 0.0
2017-Mar-27 14:31N 25°46' W 080°11'0 0.0
2017-Mar-27 13:34N 25°46' W 080°11'0 0.0
2017-Mar-27 12:31N 25°46' W 080°11'0 0.0
2017-Mar-27 11:34N 25°46' W 080°11'0 0.0
2017-Mar-27 10:34N 25°46' W 080°11'0 0.0
2017-Mar-27 09:34N 25°46' W 080°11'0 0.0
2017-Mar-27 08:34N 25°46' W 080°11'0 0.0
2017-Mar-27 07:34N 25°46' W 080°11'0 0.0
2017-Mar-27 06:34N 25°46' W 080°11'0 0.0
2017-Mar-27 05:34N 25°46' W 080°11'0 0.0
2017-Mar-27 04:34N 25°46' W 080°11'0 0.0
2017-Mar-27 03:28N 25°46' W 080°11'0 0.0
2017-Mar-27 02:31N 25°46' W 080°11'0 0.0
2017-Mar-27 01:34N 25°46' W 080°11'0 0.0
2017-Mar-27 00:28N 25°46' W 080°11'0 0.0
2017-Mar-26 23:34N 25°46' W 080°11'0 0.0
2017-Mar-26 22:31N 25°46' W 080°11'0 0.0
2017-Mar-26 21:34N 25°46' W 080°11'0 0.1
2017-Mar-26 20:28N 25°46' W 080°11'0 0.1
2017-Mar-26 19:34N 25°46' W 080°11'0 0.0
2017-Mar-26 18:34N 25°46' W 080°11'0 0.0
2017-Mar-26 17:34N 25°46' W 080°11'0 0.0
2017-Mar-26 16:34N 25°46' W 080°11'0 0.0
2017-Mar-26 15:34N 25°46' W 080°11'0 0.1
2017-Mar-26 14:31N 25°46' W 080°11'0 0.0
2017-Mar-26 13:34N 25°46' W 080°11'0 0.0
2017-Mar-26 12:34N 25°46' W 080°11'0 0.0
2017-Mar-26 11:33N 25°46' W 080°11'0 0.1
2017-Mar-26 10:34N 25°46' W 080°11'0 0.1
2017-Mar-26 09:33N 25°46' W 080°11'0 0.0
2017-Mar-26 08:31N 25°46' W 080°11'0 0.0
2017-Mar-26 07:33N 25°46' W 080°11'0 0.0
2017-Mar-26 06:31N 25°46' W 080°11'0 0.0
2017-Mar-26 05:33N 25°46' W 080°11'0 0.0
2017-Mar-26 04:33N 25°46' W 080°11'0 0.0
2017-Mar-26 03:33N 25°46' W 080°11'0 0.0
2017-Mar-26 02:33N 25°46' W 080°11'0 0.0
2017-Mar-26 01:33N 25°46' W 080°11'0 0.1
2017-Mar-26 00:33N 25°46' W 080°11'0 0.1
2017-Mar-25 23:33N 25°46' W 080°11'0 0.0
2017-Mar-25 22:27N 25°46' W 080°11'0 0.0
2017-Mar-25 21:33N 25°46' W 080°11'0 0.1
2017-Mar-25 20:28N 25°46' W 080°11'0 0.1
2017-Mar-25 19:30N 25°46' W 080°11'0 0.0
2017-Mar-25 18:33N 25°46' W 080°11'0 0.0
2017-Mar-25 17:33N 25°46' W 080°11'0 0.0
2017-Mar-25 16:30N 25°46' W 080°11'0 0.0
2017-Mar-25 15:30N 25°46' W 080°11'0 0.0
2017-Mar-25 14:30N 25°46' W 080°11'0 0.0
2017-Mar-25 13:33N 25°46' W 080°11'0 0.0
2017-Mar-25 12:33N 25°46' W 080°11'0 0.0
2017-Mar-25 11:33N 25°46' W 080°11'0 0.0
2017-Mar-25 10:33N 25°46' W 080°11'0 0.0
2017-Mar-25 09:30N 25°46' W 080°11'0 0.1
2017-Mar-25 08:33N 25°46' W 080°11'0 0.0
2017-Mar-25 07:33N 25°46' W 080°11'0 0.0
2017-Mar-25 06:30N 25°46' W 080°11'0 0.0
2017-Mar-25 05:33N 25°46' W 080°11'0 0.0
2017-Mar-25 04:30N 25°46' W 080°11'0 0.0
2017-Mar-25 03:30N 25°46' W 080°11'0 0.0
2017-Mar-25 02:33N 25°46' W 080°11'0 0.0
2017-Mar-25 01:24N 25°46' W 080°11'0 0.0
2017-Mar-25 00:33N 25°46' W 080°11'0 0.0
2017-Mar-24 23:33N 25°46' W 080°11'0 0.0
2017-Mar-24 22:33N 25°46' W 080°11'0 0.0
2017-Mar-24 21:27N 25°46' W 080°11'0 0.1
2017-Mar-24 20:30N 25°46' W 080°11'0 0.1
2017-Mar-24 19:30N 25°46' W 080°11'0 0.1
2017-Mar-24 18:33N 25°46' W 080°11'0 0.0
2017-Mar-24 17:33N 25°46' W 080°11'0 0.0
2017-Mar-24 16:30N 25°46' W 080°11'0 0.1
2017-Mar-24 15:30N 25°46' W 080°11'0 0.1
2017-Mar-24 14:33N 25°46' W 080°11'0 0.0
2017-Mar-24 13:33N 25°46' W 080°11'0 0.0
2017-Mar-24 12:33N 25°46' W 080°11'0 0.0
2017-Mar-24 11:30N 25°46' W 080°11'0 0.0
2017-Mar-24 10:33N 25°46' W 080°11'0 0.0
2017-Mar-24 09:33N 25°46' W 080°11'0 0.1
2017-Mar-24 08:33N 25°46' W 080°11'0 0.0
2017-Mar-24 07:33N 25°46' W 080°11'0 0.0
2017-Mar-24 06:33N 25°46' W 080°11'0 0.0
2017-Mar-24 05:30N 25°46' W 080°11'0 0.1
2017-Mar-24 04:33N 25°46' W 080°11'0 0.1
2017-Mar-24 03:33N 25°46' W 080°11'0 0.0
2017-Mar-24 02:33N 25°46' W 080°11'0 0.0
2017-Mar-24 01:33N 25°46' W 080°11'0 0.0
2017-Mar-24 00:33N 25°46' W 080°11'0 0.0
2017-Mar-23 23:27N 25°46' W 080°11'0 0.0
2017-Mar-23 22:33N 25°46' W 080°11'0 0.0
2017-Mar-23 21:33N 25°46' W 080°11'0 0.1
2017-Mar-23 20:33N 25°46' W 080°11'0 0.1
2017-Mar-23 19:33N 25°46' W 080°11'0 0.1
2017-Mar-23 18:27N 25°46' W 080°11'0 0.0
2017-Mar-23 17:33N 25°46' W 080°11'0 0.0
2017-Mar-23 16:33N 25°46' W 080°11'0 0.0
2017-Mar-23 15:30N 25°46' W 080°11'0 0.1
2017-Mar-23 14:33N 25°46' W 080°11'0 0.0
2017-Mar-23 13:33N 25°46' W 080°11'0 0.0
2017-Mar-23 12:33N 25°46' W 080°11'0 0.1
2017-Mar-23 11:33N 25°46' W 080°11'0 0.1
2017-Mar-23 10:33N 25°46' W 080°11'0 0.1
2017-Mar-23 09:33N 25°46' W 080°11'0 0.0
2017-Mar-23 08:18N 25°46' W 080°11'0 0.0
2017-Mar-23 07:33N 25°46' W 080°11'0 0.0
2017-Mar-23 06:30N 25°46' W 080°11'0 0.0
2017-Mar-23 05:33N 25°46' W 080°11'0 0.1
2017-Mar-23 04:27N 25°46' W 080°11'0 0.2
2017-Mar-23 03:32N 25°46' W 080°11'0 0.1
2017-Mar-23 02:29N 25°46' W 080°11'0 0.0
2017-Mar-23 01:32N 25°46' W 080°11'0 0.0
2017-Mar-23 00:32N 25°46' W 080°11'0 0.0
2017-Mar-22 23:32N 25°46' W 080°11'0 0.0
2017-Mar-22 22:32N 25°46' W 080°11'0 0.0
2017-Mar-22 21:32N 25°46' W 080°11'0 0.0
2017-Mar-22 20:26N 25°46' W 080°11'0 0.0
2017-Mar-22 19:29N 25°46' W 080°11'0 0.0
2017-Mar-22 18:23N 25°46' W 080°11'0 0.0
2017-Mar-22 17:32N 25°46' W 080°11'0 0.0
2017-Mar-22 16:23N 25°46' W 080°11'0 0.1
2017-Mar-22 15:29N 25°46' W 080°11'0 0.1
2017-Mar-22 14:29N 25°46' W 080°11'0 0.0
2017-Mar-22 13:26N 25°46' W 080°11'0 0.0
2017-Mar-22 12:32N 25°46' W 080°11'0 0.0
2017-Mar-22 11:32N 25°46' W 080°11'0 0.0
2017-Mar-22 10:26N 25°46' W 080°11'0 0.1
2017-Mar-22 09:32N 25°46' W 080°11'0 0.1
2017-Mar-22 08:29N 25°46' W 080°11'0 0.0
2017-Mar-22 07:29N 25°46' W 080°11'0 0.0
2017-Mar-22 06:32N 25°46' W 080°11'0 0.0
2017-Mar-22 05:32N 25°46' W 080°11'0 0.1
2017-Mar-22 04:29N 25°46' W 080°11'0 0.1
2017-Mar-22 03:32N 25°46' W 080°11'0 0.0
2017-Mar-22 02:23N 25°46' W 080°11'0 0.0
2017-Mar-22 01:32N 25°46' W 080°11'0 0.0
2017-Mar-22 00:32N 25°46' W 080°11'0 0.0
2017-Mar-21 23:32N 25°46' W 080°11'0 0.0
2017-Mar-21 22:23N 25°46' W 080°11'0 0.0
2017-Mar-21 21:29N 25°46' W 080°11'0 0.1
2017-Mar-21 20:32N 25°46' W 080°11'0 0.1
2017-Mar-21 19:29N 25°46' W 080°11'0 0.0
2017-Mar-21 18:26N 25°46' W 080°11'0 0.0
2017-Mar-21 17:26N 25°46' W 080°11'0 0.0
2017-Mar-21 16:32N 25°46' W 080°11'0 0.1
2017-Mar-21 15:32N 25°46' W 080°11'0 0.1
2017-Mar-21 14:32N 25°46' W 080°11'0 0.0
2017-Mar-21 13:26N 25°46' W 080°11'0 0.1
2017-Mar-21 12:32N 25°46' W 080°11'0 0.1
2017-Mar-21 11:32N 25°46' W 080°11'0 0.0
2017-Mar-21 10:32N 25°46' W 080°11'0 0.0
2017-Mar-21 09:29N 25°46' W 080°11'0 0.0
2017-Mar-21 08:26N 25°46' W 080°11'0 0.0
2017-Mar-21 07:26N 25°46' W 080°11'0 0.0
2017-Mar-21 06:32N 25°46' W 080°11'0 0.0
2017-Mar-21 05:32N 25°46' W 080°11'0 0.2
2017-Mar-21 04:32N 25°46' W 080°11'0 0.2
2017-Mar-21 03:32N 25°46' W 080°11'0 0.0
2017-Mar-21 02:32N 25°46' W 080°11'0 0.0
2017-Mar-21 01:32N 25°46' W 080°11'0 0.0
2017-Mar-21 00:32N 25°46' W 080°11'0 0.0
2017-Mar-20 23:32N 25°46' W 080°11'0 0.1
2017-Mar-20 22:32N 25°46' W 080°11'0 0.0
2017-Mar-20 21:29N 25°46' W 080°11'0 0.0
2017-Mar-20 20:32N 25°46' W 080°11'0 0.0
2017-Mar-20 19:32N 25°46' W 080°11'0 0.0
2017-Mar-20 18:32N 25°46' W 080°11'0 0.0
2017-Mar-20 17:32N 25°46' W 080°11'0 0.0
2017-Mar-20 16:32N 25°46' W 080°11'0 0.0
2017-Mar-20 15:29N 25°46' W 080°11'0 0.0
2017-Mar-20 14:32N 25°46' W 080°11'2 1.8
2017-Mar-20 13:33N 25°46' W 080°09'10 9.9
2017-Mar-20 12:33N 25°55' W 080°05'1211.6
2017-Mar-20 11:33N 26°06' W 080°07'1 0.9
2017-Mar-20 10:29N 26°07' W 080°06'0 0.0
2017-Mar-20 09:32N 26°07' W 080°06'0 0.0
2017-Mar-20 08:32N 26°07' W 080°06'0 0.0
2017-Mar-20 07:32N 26°07' W 080°06'0 0.0
2017-Mar-20 06:29N 26°07' W 080°06'0 0.0
2017-Mar-20 05:32N 26°07' W 080°06'0 0.0
2017-Mar-20 04:32N 26°07' W 080°06'0 0.0
2017-Mar-20 03:32N 26°07' W 080°06'0 0.0
2017-Mar-20 02:29N 26°07' W 080°06'0 0.0
2017-Mar-20 01:32N 26°07' W 080°06'0 0.0
2017-Mar-20 00:32N 26°07' W 080°06'0 0.0
2017-Mar-19 23:32N 26°07' W 080°06'0 0.0
2017-Mar-19 22:32N 26°07' W 080°06'0 0.0
2017-Mar-19 21:32N 26°07' W 080°06'0 0.0
2017-Mar-19 20:32N 26°07' W 080°06'  
Track history (hours):
 
Tides and Currents Weather Stations Pressure Air Temp Water Temp Dewpoint Dewpoint Depression Visibility Wind Speed Wind Dir Waves Ship Positions

Intrepid

Owner: R & H Enterprises, Vero Beach, FL. More information available from US FCC via Universal Licensing System and Coast Guard Vessel Documentation Center.

Last reported at 2017-Mar-29 20:05 UTC. Time now 2017-Mar-30 04:42 UTC.
Position N 26°21' W 080°05'.

Length 35 m; draft 2 m.

Type: Pleasure craft. MMSI: 367409580.

Date/timePositionNaut miles runAvg speedWind from/ knotsBaromVisibWave heightAir tempDewpointWater temp
2017-Mar-29 20:05N 26°21' W 080°05'2 3.3
2017-Mar-29 19:33N 26°19' W 080°05'5 5.0
2017-Mar-29 18:33N 26°14' W 080°06'6 5.5
2017-Mar-29 17:33N 26°08' W 080°06'5 5.5
2017-Mar-29 16:33N 26°03' W 080°07'5 5.3
2017-Mar-29 15:34N 25°58' W 080°07'7 7.2
2017-Mar-29 14:33N 25°51' W 080°10'4 4.4
2017-Mar-29 13:33N 25°47' W 080°11'1 0.5
2017-Mar-29 12:28N 25°46' W 080°11'0 0.0
2017-Mar-29 11:31N 25°46' W 080°11'0 0.0
2017-Mar-29 10:31N 25°46' W 080°11'0 0.0
2017-Mar-29 09:25N 25°46' W 080°11'0 0.0
2017-Mar-29 08:31N 25°46' W 080°11'0 0.0
2017-Mar-29 07:31N 25°46' W 080°11'0 0.0
2017-Mar-29 06:31N 25°46' W 080°11'0 0.0
2017-Mar-29 05:31N 25°46' W 080°11'0 0.0
2017-Mar-29 04:31N 25°46' W 080°11'0 0.0
2017-Mar-29 03:31N 25°46' W 080°11'0 0.0
2017-Mar-29 02:31N 25°46' W 080°11'0 0.0
2017-Mar-29 01:31N 25°46' W 080°11'0 0.0
2017-Mar-29 00:25N 25°46' W 080°11'0 0.0
2017-Mar-28 23:31N 25°46' W 080°11'0 0.0
2017-Mar-28 22:31N 25°46' W 080°11'0 0.0
2017-Mar-28 21:31N 25°46' W 080°11'0 0.1
2017-Mar-28 20:31N 25°46' W 080°11'0 0.1
2017-Mar-28 19:31N 25°46' W 080°11'0 0.0
2017-Mar-28 18:31N 25°46' W 080°11'0 0.0
2017-Mar-28 17:31N 25°46' W 080°11'0 0.0
2017-Mar-28 16:28N 25°46' W 080°11'0 0.0
2017-Mar-28 15:31N 25°46' W 080°11'0 0.0
2017-Mar-28 14:31N 25°46' W 080°11'0 0.0
2017-Mar-28 13:31N 25°46' W 080°11'0 0.0
2017-Mar-28 12:31N 25°46' W 080°11'0 0.0
2017-Mar-28 11:25N 25°46' W 080°11'0 0.0
2017-Mar-28 10:25N 25°46' W 080°11'0 0.1
2017-Mar-28 09:31N 25°46' W 080°11'0 0.1
2017-Mar-28 08:31N 25°46' W 080°11'0 0.0
2017-Mar-28 07:31N 25°46' W 080°11'0 0.0
2017-Mar-28 06:31N 25°46' W 080°11'0 0.0
2017-Mar-28 05:31N 25°46' W 080°11'0 0.0
2017-Mar-28 04:25N 25°46' W 080°11'0 0.1
2017-Mar-28 03:31N 25°46' W 080°11'0 0.0
2017-Mar-28 02:28N 25°46' W 080°11'0 0.0
2017-Mar-28 01:28N 25°46' W 080°11'0 0.0
2017-Mar-28 00:31N 25°46' W 080°11'0 0.0
2017-Mar-27 23:28N 25°46' W 080°11'0 0.0
2017-Mar-27 22:31N 25°46' W 080°11'0 0.0
2017-Mar-27 21:31N 25°46' W 080°11'0 0.1
2017-Mar-27 20:31N 25°46' W 080°11'0 0.1
2017-Mar-27 19:31N 25°46' W 080°11'0 0.0
2017-Mar-27 18:25N 25°46' W 080°11'0 0.0
2017-Mar-27 17:28N 25°46' W 080°11'0 0.0
2017-Mar-27 16:34N 25°46' W 080°11'0 0.0
2017-Mar-27 15:31N 25°46' W 080°11'0 0.0
2017-Mar-27 14:31N 25°46' W 080°11'0 0.0
2017-Mar-27 13:34N 25°46' W 080°11'0 0.0
2017-Mar-27 12:31N 25°46' W 080°11'0 0.0
2017-Mar-27 11:34N 25°46' W 080°11'0 0.0
2017-Mar-27 10:34N 25°46' W 080°11'0 0.0
2017-Mar-27 09:34N 25°46' W 080°11'0 0.0
2017-Mar-27 08:34N 25°46' W 080°11'0 0.0
2017-Mar-27 07:34N 25°46' W 080°11'0 0.0
2017-Mar-27 06:34N 25°46' W 080°11'0 0.0
2017-Mar-27 05:34N 25°46' W 080°11'0 0.0
2017-Mar-27 04:34N 25°46' W 080°11'0 0.0
2017-Mar-27 03:28N 25°46' W 080°11'0 0.0
2017-Mar-27 02:31N 25°46' W 080°11'0 0.0
2017-Mar-27 01:34N 25°46' W 080°11'0 0.0
2017-Mar-27 00:28N 25°46' W 080°11'0 0.0
2017-Mar-26 23:34N 25°46' W 080°11'0 0.0
2017-Mar-26 22:31N 25°46' W 080°11'0 0.0
2017-Mar-26 21:34N 25°46' W 080°11'0 0.1
2017-Mar-26 20:28N 25°46' W 080°11'0 0.1
2017-Mar-26 19:34N 25°46' W 080°11'0 0.0
2017-Mar-26 18:34N 25°46' W 080°11'0 0.0
2017-Mar-26 17:34N 25°46' W 080°11'0 0.0
2017-Mar-26 16:34N 25°46' W 080°11'0 0.0
2017-Mar-26 15:34N 25°46' W 080°11'0 0.1
2017-Mar-26 14:31N 25°46' W 080°11'0 0.0
2017-Mar-26 13:34N 25°46' W 080°11'0 0.0
2017-Mar-26 12:34N 25°46' W 080°11'0 0.0
2017-Mar-26 11:33N 25°46' W 080°11'0 0.1
2017-Mar-26 10:34N 25°46' W 080°11'0 0.1
2017-Mar-26 09:33N 25°46' W 080°11'0 0.0
2017-Mar-26 08:31N 25°46' W 080°11'0 0.0
2017-Mar-26 07:33N 25°46' W 080°11'0 0.0
2017-Mar-26 06:31N 25°46' W 080°11'0 0.0
2017-Mar-26 05:33N 25°46' W 080°11'0 0.0
2017-Mar-26 04:33N 25°46' W 080°11'0 0.0
2017-Mar-26 03:33N 25°46' W 080°11'0 0.0
2017-Mar-26 02:33N 25°46' W 080°11'0 0.0
2017-Mar-26 01:33N 25°46' W 080°11'0 0.1
2017-Mar-26 00:33N 25°46' W 080°11'0 0.1
2017-Mar-25 23:33N 25°46' W 080°11'0 0.0
2017-Mar-25 22:27N 25°46' W 080°11'0 0.0
2017-Mar-25 21:33N 25°46' W 080°11'0 0.1
2017-Mar-25 20:28N 25°46' W 080°11'0 0.1
2017-Mar-25 19:30N 25°46' W 080°11'0 0.0
2017-Mar-25 18:33N 25°46' W 080°11'0 0.0
2017-Mar-25 17:33N 25°46' W 080°11'0 0.0
2017-Mar-25 16:30N 25°46' W 080°11'0 0.0
2017-Mar-25 15:30N 25°46' W 080°11'0 0.0
2017-Mar-25 14:30N 25°46' W 080°11'0 0.0
2017-Mar-25 13:33N 25°46' W 080°11'0 0.0
2017-Mar-25 12:33N 25°46' W 080°11'0 0.0
2017-Mar-25 11:33N 25°46' W 080°11'0 0.0
2017-Mar-25 10:33N 25°46' W 080°11'0 0.0
2017-Mar-25 09:30N 25°46' W 080°11'0 0.1
2017-Mar-25 08:33N 25°46' W 080°11'0 0.0
2017-Mar-25 07:33N 25°46' W 080°11'0 0.0
2017-Mar-25 06:30N 25°46' W 080°11'0 0.0
2017-Mar-25 05:33N 25°46' W 080°11'0 0.0
2017-Mar-25 04:30N 25°46' W 080°11'0 0.0
2017-Mar-25 03:30N 25°46' W 080°11'0 0.0
2017-Mar-25 02:33N 25°46' W 080°11'0 0.0
2017-Mar-25 01:24N 25°46' W 080°11'0 0.0
2017-Mar-25 00:33N 25°46' W 080°11'0 0.0
2017-Mar-24 23:33N 25°46' W 080°11'0 0.0
2017-Mar-24 22:33N 25°46' W 080°11'0 0.0
2017-Mar-24 21:27N 25°46' W 080°11'0 0.1
2017-Mar-24 20:30N 25°46' W 080°11'0 0.1
2017-Mar-24 19:30N 25°46' W 080°11'0 0.1
2017-Mar-24 18:33N 25°46' W 080°11'0 0.0
2017-Mar-24 17:33N 25°46' W 080°11'0 0.0
2017-Mar-24 16:30N 25°46' W 080°11'0 0.1
2017-Mar-24 15:30N 25°46' W 080°11'0 0.1
2017-Mar-24 14:33N 25°46' W 080°11'0 0.0
2017-Mar-24 13:33N 25°46' W 080°11'0 0.0
2017-Mar-24 12:33N 25°46' W 080°11'0 0.0
2017-Mar-24 11:30N 25°46' W 080°11'0 0.0
2017-Mar-24 10:33N 25°46' W 080°11'0 0.0
2017-Mar-24 09:33N 25°46' W 080°11'0 0.1
2017-Mar-24 08:33N 25°46' W 080°11'0 0.0
2017-Mar-24 07:33N 25°46' W 080°11'0 0.0
2017-Mar-24 06:33N 25°46' W 080°11'0 0.0
2017-Mar-24 05:30N 25°46' W 080°11'0 0.1
2017-Mar-24 04:33N 25°46' W 080°11'0 0.1
2017-Mar-24 03:33N 25°46' W 080°11'0 0.0
2017-Mar-24 02:33N 25°46' W 080°11'0 0.0
2017-Mar-24 01:33N 25°46' W 080°11'0 0.0
2017-Mar-24 00:33N 25°46' W 080°11'0 0.0
2017-Mar-23 23:27N 25°46' W 080°11'0 0.0
2017-Mar-23 22:33N 25°46' W 080°11'0 0.0
2017-Mar-23 21:33N 25°46' W 080°11'0 0.1
2017-Mar-23 20:33N 25°46' W 080°11'0 0.1
2017-Mar-23 19:33N 25°46' W 080°11'0 0.1
2017-Mar-23 18:27N 25°46' W 080°11'0 0.0
2017-Mar-23 17:33N 25°46' W 080°11'0 0.0
2017-Mar-23 16:33N 25°46' W 080°11'0 0.0
2017-Mar-23 15:30N 25°46' W 080°11'0 0.1
2017-Mar-23 14:33N 25°46' W 080°11'0 0.0
2017-Mar-23 13:33N 25°46' W 080°11'0 0.0
2017-Mar-23 12:33N 25°46' W 080°11'0 0.1
2017-Mar-23 11:33N 25°46' W 080°11'0 0.1
2017-Mar-23 10:33N 25°46' W 080°11'0 0.1
2017-Mar-23 09:33N 25°46' W 080°11'0 0.0
2017-Mar-23 08:18N 25°46' W 080°11'0 0.0
2017-Mar-23 07:33N 25°46' W 080°11'0 0.0
2017-Mar-23 06:30N 25°46' W 080°11'0 0.0
2017-Mar-23 05:33N 25°46' W 080°11'0 0.1
2017-Mar-23 04:27N 25°46' W 080°11'0 0.2
2017-Mar-23 03:32N 25°46' W 080°11'0 0.1
2017-Mar-23 02:29N 25°46' W 080°11'0 0.0
2017-Mar-23 01:32N 25°46' W 080°11'0 0.0
2017-Mar-23 00:32N 25°46' W 080°11'0 0.0
2017-Mar-22 23:32N 25°46' W 080°11'0 0.0
2017-Mar-22 22:32N 25°46' W 080°11'0 0.0
2017-Mar-22 21:32N 25°46' W 080°11'0 0.0
2017-Mar-22 20:26N 25°46' W 080°11'0 0.0
2017-Mar-22 19:29N 25°46' W 080°11'0 0.0
2017-Mar-22 18:23N 25°46' W 080°11'0 0.0
2017-Mar-22 17:32N 25°46' W 080°11'0 0.0
2017-Mar-22 16:23N 25°46' W 080°11'0 0.1
2017-Mar-22 15:29N 25°46' W 080°11'0 0.1
2017-Mar-22 14:29N 25°46' W 080°11'0 0.0
2017-Mar-22 13:26N 25°46' W 080°11'0 0.0
2017-Mar-22 12:32N 25°46' W 080°11'0 0.0
2017-Mar-22 11:32N 25°46' W 080°11'0 0.0
2017-Mar-22 10:26N 25°46' W 080°11'0 0.1
2017-Mar-22 09:32N 25°46' W 080°11'0 0.1
2017-Mar-22 08:29N 25°46' W 080°11'0 0.0
2017-Mar-22 07:29N 25°46' W 080°11'0 0.0
2017-Mar-22 06:32N 25°46' W 080°11'0 0.0
2017-Mar-22 05:32N 25°46' W 080°11'0 0.1
2017-Mar-22 04:29N 25°46' W 080°11'0 0.1
2017-Mar-22 03:32N 25°46' W 080°11'0 0.0
2017-Mar-22 02:23N 25°46' W 080°11'0 0.0
2017-Mar-22 01:32N 25°46' W 080°11'0 0.0
2017-Mar-22 00:32N 25°46' W 080°11'0 0.0
2017-Mar-21 23:32N 25°46' W 080°11'0 0.0
2017-Mar-21 22:23N 25°46' W 080°11'0 0.0
2017-Mar-21 21:29N 25°46' W 080°11'0 0.1
2017-Mar-21 20:32N 25°46' W 080°11'0 0.1
2017-Mar-21 19:29N 25°46' W 080°11'0 0.0
2017-Mar-21 18:26N 25°46' W 080°11'0 0.0
2017-Mar-21 17:26N 25°46' W 080°11'0 0.0
2017-Mar-21 16:32N 25°46' W 080°11'0 0.1
2017-Mar-21 15:32N 25°46' W 080°11'0 0.1
2017-Mar-21 14:32N 25°46' W 080°11'0 0.0
2017-Mar-21 13:26N 25°46' W 080°11'0 0.1
2017-Mar-21 12:32N 25°46' W 080°11'0 0.1
2017-Mar-21 11:32N 25°46' W 080°11'0 0.0
2017-Mar-21 10:32N 25°46' W 080°11'0 0.0
2017-Mar-21 09:29N 25°46' W 080°11'0 0.0
2017-Mar-21 08:26N 25°46' W 080°11'0 0.0
2017-Mar-21 07:26N 25°46' W 080°11'0 0.0
2017-Mar-21 06:32N 25°46' W 080°11'0 0.0
2017-Mar-21 05:32N 25°46' W 080°11'0 0.2
2017-Mar-21 04:32N 25°46' W 080°11'0 0.2
2017-Mar-21 03:32N 25°46' W 080°11'0 0.0
2017-Mar-21 02:32N 25°46' W 080°11'0 0.0
2017-Mar-21 01:32N 25°46' W 080°11'0 0.0
2017-Mar-21 00:32N 25°46' W 080°11'0 0.0
2017-Mar-20 23:32N 25°46' W 080°11'0 0.1
2017-Mar-20 22:32N 25°46' W 080°11'0 0.0
2017-Mar-20 21:29N 25°46' W 080°11'0 0.0
2017-Mar-20 20:32N 25°46' W 080°11'0 0.0
2017-Mar-20 19:32N 25°46' W 080°11'0 0.0
2017-Mar-20 18:32N 25°46' W 080°11'0 0.0
2017-Mar-20 17:32N 25°46' W 080°11'0 0.0
2017-Mar-20 16:32N 25°46' W 080°11'0 0.0
2017-Mar-20 15:29N 25°46' W 080°11'0 0.0
2017-Mar-20 14:32N 25°46' W 080°11'2 1.8
2017-Mar-20 13:33N 25°46' W 080°09'10 9.9
2017-Mar-20 12:33N 25°55' W 080°05'1211.6
2017-Mar-20 11:33N 26°06' W 080°07'1 0.9
2017-Mar-20 10:29N 26°07' W 080°06'0 0.0
2017-Mar-20 09:32N 26°07' W 080°06'0 0.0
2017-Mar-20 08:32N 26°07' W 080°06'0 0.0
2017-Mar-20 07:32N 26°07' W 080°06'0 0.0
2017-Mar-20 06:29N 26°07' W 080°06'0 0.0
2017-Mar-20 05:32N 26°07' W 080°06'0 0.0
2017-Mar-20 04:32N 26°07' W 080°06'0 0.0
2017-Mar-20 03:32N 26°07' W 080°06'0 0.0
2017-Mar-20 02:29N 26°07' W 080°06'0 0.0
2017-Mar-20 01:32N 26°07' W 080°06'0 0.0
2017-Mar-20 00:32N 26°07' W 080°06'0 0.0
2017-Mar-19 23:32N 26°07' W 080°06'0 0.0
2017-Mar-19 22:32N 26°07' W 080°06'0 0.0
2017-Mar-19 21:32N 26°07' W 080°06'0 0.0
2017-Mar-19 20:32N 26°07' W 080°06'  

Dump ship's entire track history